sensor_id;sensor_type;location;lat;lon;timestamp;P1;durP1;ratioP1;P2;durP2;ratioP2
13269;SDS011;6703;51.994;7.570;2023-08-06T00:02:12;20.98;;;8.75;;
13269;SDS011;6703;51.994;7.570;2023-08-06T00:04:40;24.67;;;7.97;;
13269;SDS011;6703;51.994;7.570;2023-08-06T00:07:08;21.80;;;8.57;;
13269;SDS011;6703;51.994;7.570;2023-08-06T00:09:36;19.77;;;8.32;;
13269;SDS011;6703;51.994;7.570;2023-08-06T00:12:04;25.83;;;8.83;;
13269;SDS011;6703;51.994;7.570;2023-08-06T00:14:34;25.58;;;8.20;;
13269;SDS011;6703;51.994;7.570;2023-08-06T00:17:02;21.60;;;8.40;;
13269;SDS011;6703;51.994;7.570;2023-08-06T00:19:31;47.85;;;8.85;;
13269;SDS011;6703;51.994;7.570;2023-08-06T00:21:59;224.57;;;12.52;;
13269;SDS011;6703;51.994;7.570;2023-08-06T00:24:28;25.65;;;8.88;;
13269;SDS011;6703;51.994;7.570;2023-08-06T00:26:55;26.45;;;8.95;;
13269;SDS011;6703;51.994;7.570;2023-08-06T00:29:24;28.27;;;9.40;;
13269;SDS011;6703;51.994;7.570;2023-08-06T00:31:53;26.30;;;9.25;;
13269;SDS011;6703;51.994;7.570;2023-08-06T00:34:22;27.33;;;9.68;;
13269;SDS011;6703;51.994;7.570;2023-08-06T00:36:50;20.70;;;9.03;;
13269;SDS011;6703;51.994;7.570;2023-08-06T00:39:20;22.67;;;9.82;;
13269;SDS011;6703;51.994;7.570;2023-08-06T00:41:47;27.55;;;9.20;;
13269;SDS011;6703;51.994;7.570;2023-08-06T00:44:16;26.23;;;9.48;;
13269;SDS011;6703;51.994;7.570;2023-08-06T00:46:44;24.75;;;9.55;;
13269;SDS011;6703;51.994;7.570;2023-08-06T00:49:13;27.85;;;9.55;;
13269;SDS011;6703;51.994;7.570;2023-08-06T00:51:41;23.65;;;8.82;;
13269;SDS011;6703;51.994;7.570;2023-08-06T00:54:10;28.98;;;9.18;;
13269;SDS011;6703;51.994;7.570;2023-08-06T00:56:37;20.65;;;9.10;;
13269;SDS011;6703;51.994;7.570;2023-08-06T00:59:06;20.55;;;8.85;;
13269;SDS011;6703;51.994;7.570;2023-08-06T01:01:35;23.30;;;8.60;;
13269;SDS011;6703;51.994;7.570;2023-08-06T01:04:03;21.60;;;8.25;;
13269;SDS011;6703;51.994;7.570;2023-08-06T01:06:35;18.98;;;8.43;;
13269;SDS011;6703;51.994;7.570;2023-08-06T01:09:08;16.15;;;8.45;;
13269;SDS011;6703;51.994;7.570;2023-08-06T01:11:48;18.73;;;8.13;;
13269;SDS011;6703;51.994;7.570;2023-08-06T01:14:21;20.00;;;8.77;;
13269;SDS011;6703;51.994;7.570;2023-08-06T01:16:51;24.48;;;8.07;;
13269;SDS011;6703;51.994;7.570;2023-08-06T01:19:20;25.20;;;8.32;;
13269;SDS011;6703;51.994;7.570;2023-08-06T01:21:50;19.02;;;7.30;;
13269;SDS011;6703;51.994;7.570;2023-08-06T01:24:18;16.45;;;8.25;;
13269;SDS011;6703;51.994;7.570;2023-08-06T01:26:48;16.30;;;7.82;;
13269;SDS011;6703;51.994;7.570;2023-08-06T01:29:22;17.88;;;7.97;;
13269;SDS011;6703;51.994;7.570;2023-08-06T01:31:53;18.92;;;7.63;;
13269;SDS011;6703;51.994;7.570;2023-08-06T01:34:23;15.40;;;7.38;;
13269;SDS011;6703;51.994;7.570;2023-08-06T01:36:54;16.05;;;7.78;;
13269;SDS011;6703;51.994;7.570;2023-08-06T01:39:23;16.95;;;7.18;;
13269;SDS011;6703;51.994;7.570;2023-08-06T01:41:50;13.82;;;7.35;;
13269;SDS011;6703;51.994;7.570;2023-08-06T01:44:19;17.45;;;7.30;;
13269;SDS011;6703;51.994;7.570;2023-08-06T01:46:47;15.95;;;6.85;;
13269;SDS011;6703;51.994;7.570;2023-08-06T01:49:15;20.77;;;7.57;;
13269;SDS011;6703;51.994;7.570;2023-08-06T01:51:43;20.25;;;8.00;;
13269;SDS011;6703;51.994;7.570;2023-08-06T01:54:12;16.90;;;7.18;;
13269;SDS011;6703;51.994;7.570;2023-08-06T01:56:41;14.48;;;7.25;;
13269;SDS011;6703;51.994;7.570;2023-08-06T01:59:08;14.80;;;7.10;;
13269;SDS011;6703;51.994;7.570;2023-08-06T02:01:36;13.85;;;7.18;;
13269;SDS011;6703;51.994;7.570;2023-08-06T02:04:04;14.20;;;6.93;;
13269;SDS011;6703;51.994;7.570;2023-08-06T02:06:32;16.63;;;7.65;;
13269;SDS011;6703;51.994;7.570;2023-08-06T02:09:00;19.80;;;7.30;;
13269;SDS011;6703;51.994;7.570;2023-08-06T02:11:29;18.55;;;7.10;;
13269;SDS011;6703;51.994;7.570;2023-08-06T02:13:56;21.38;;;7.10;;
13269;SDS011;6703;51.994;7.570;2023-08-06T02:16:24;23.83;;;7.22;;
13269;SDS011;6703;51.994;7.570;2023-08-06T02:18:52;16.38;;;7.20;;
13269;SDS011;6703;51.994;7.570;2023-08-06T02:21:21;16.80;;;7.50;;
13269;SDS011;6703;51.994;7.570;2023-08-06T02:23:49;19.90;;;6.95;;
13269;SDS011;6703;51.994;7.570;2023-08-06T02:26:16;17.83;;;7.35;;
13269;SDS011;6703;51.994;7.570;2023-08-06T02:28:46;16.83;;;7.72;;
13269;SDS011;6703;51.994;7.570;2023-08-06T02:31:13;24.27;;;7.65;;
13269;SDS011;6703;51.994;7.570;2023-08-06T02:33:41;21.08;;;7.30;;
13269;SDS011;6703;51.994;7.570;2023-08-06T02:36:10;18.50;;;7.50;;
13269;SDS011;6703;51.994;7.570;2023-08-06T02:38:38;17.20;;;7.43;;
13269;SDS011;6703;51.994;7.570;2023-08-06T02:41:06;20.33;;;8.15;;
13269;SDS011;6703;51.994;7.570;2023-08-06T02:43:34;18.50;;;7.22;;
13269;SDS011;6703;51.994;7.570;2023-08-06T02:46:03;16.15;;;7.25;;
13269;SDS011;6703;51.994;7.570;2023-08-06T02:48:31;16.25;;;6.78;;
13269;SDS011;6703;51.994;7.570;2023-08-06T02:50:59;19.92;;;6.85;;
13269;SDS011;6703;51.994;7.570;2023-08-06T02:53:27;17.52;;;7.22;;
13269;SDS011;6703;51.994;7.570;2023-08-06T02:55:55;24.70;;;7.15;;
13269;SDS011;6703;51.994;7.570;2023-08-06T02:58:23;13.52;;;6.85;;
13269;SDS011;6703;51.994;7.570;2023-08-06T03:01:00;13.25;;;6.13;;
13269;SDS011;6703;51.994;7.570;2023-08-06T03:03:31;19.52;;;7.30;;
13269;SDS011;6703;51.994;7.570;2023-08-06T03:06:01;15.70;;;6.77;;
13269;SDS011;6703;51.994;7.570;2023-08-06T03:08:29;15.80;;;7.22;;
13269;SDS011;6703;51.994;7.570;2023-08-06T03:10:57;16.48;;;6.75;;
13269;SDS011;6703;51.994;7.570;2023-08-06T03:13:25;20.38;;;7.43;;
13269;SDS011;6703;51.994;7.570;2023-08-06T03:15:55;16.27;;;6.88;;
13269;SDS011;6703;51.994;7.570;2023-08-06T03:18:23;15.70;;;6.75;;
13269;SDS011;6703;51.994;7.570;2023-08-06T03:20:55;14.47;;;6.70;;
13269;SDS011;6703;51.994;7.570;2023-08-06T03:23:25;14.77;;;6.50;;
13269;SDS011;6703;51.994;7.570;2023-08-06T03:25:53;15.93;;;6.68;;
13269;SDS011;6703;51.994;7.570;2023-08-06T03:28:21;28.98;;;6.90;;
13269;SDS011;6703;51.994;7.570;2023-08-06T03:30:58;15.88;;;6.70;;
13269;SDS011;6703;51.994;7.570;2023-08-06T03:33:29;14.43;;;6.35;;
13269;SDS011;6703;51.994;7.570;2023-08-06T03:35:58;17.83;;;7.32;;
13269;SDS011;6703;51.994;7.570;2023-08-06T03:38:26;15.63;;;6.65;;
13269;SDS011;6703;51.994;7.570;2023-08-06T03:40:55;23.45;;;6.68;;
13269;SDS011;6703;51.994;7.570;2023-08-06T03:43:22;20.43;;;6.47;;
13269;SDS011;6703;51.994;7.570;2023-08-06T03:45:50;18.23;;;6.40;;
13269;SDS011;6703;51.994;7.570;2023-08-06T03:48:19;15.25;;;6.60;;
13269;SDS011;6703;51.994;7.570;2023-08-06T03:50:46;18.70;;;6.55;;
13269;SDS011;6703;51.994;7.570;2023-08-06T03:53:16;15.00;;;6.80;;
13269;SDS011;6703;51.994;7.570;2023-08-06T03:55:44;12.80;;;5.93;;
13269;SDS011;6703;51.994;7.570;2023-08-06T03:58:13;21.38;;;6.13;;
13269;SDS011;6703;51.994;7.570;2023-08-06T04:00:40;18.23;;;6.30;;
13269;SDS011;6703;51.994;7.570;2023-08-06T04:03:11;15.40;;;6.85;;
13269;SDS011;6703;51.994;7.570;2023-08-06T04:05:40;16.05;;;6.63;;
13269;SDS011;6703;51.994;7.570;2023-08-06T04:08:07;19.30;;;6.47;;
13269;SDS011;6703;51.994;7.570;2023-08-06T04:10:36;12.65;;;6.22;;
13269;SDS011;6703;51.994;7.570;2023-08-06T04:13:04;17.38;;;6.45;;
13269;SDS011;6703;51.994;7.570;2023-08-06T04:15:33;14.60;;;6.30;;
13269;SDS011;6703;51.994;7.570;2023-08-06T04:18:01;12.05;;;6.00;;
13269;SDS011;6703;51.994;7.570;2023-08-06T04:20:29;15.00;;;6.43;;
13269;SDS011;6703;51.994;7.570;2023-08-06T04:22:59;12.23;;;5.63;;
13269;SDS011;6703;51.994;7.570;2023-08-06T04:28:03;11.13;;;5.60;;
13269;SDS011;6703;51.994;7.570;2023-08-06T04:30:31;9.95;;;5.43;;
13269;SDS011;6703;51.994;7.570;2023-08-06T04:33:00;15.50;;;6.43;;
13269;SDS011;6703;51.994;7.570;2023-08-06T04:35:28;16.80;;;6.18;;
13269;SDS011;6703;51.994;7.570;2023-08-06T04:37:57;11.88;;;5.72;;
13269;SDS011;6703;51.994;7.570;2023-08-06T04:40:24;11.88;;;5.88;;
13269;SDS011;6703;51.994;7.570;2023-08-06T04:42:53;17.67;;;5.88;;
13269;SDS011;6703;51.994;7.570;2023-08-06T04:45:22;13.33;;;5.60;;
13269;SDS011;6703;51.994;7.570;2023-08-06T04:47:50;14.40;;;5.40;;
13269;SDS011;6703;51.994;7.570;2023-08-06T04:50:19;14.55;;;5.55;;
13269;SDS011;6703;51.994;7.570;2023-08-06T04:52:47;16.80;;;5.73;;
13269;SDS011;6703;51.994;7.570;2023-08-06T04:55:14;15.90;;;5.80;;
13269;SDS011;6703;51.994;7.570;2023-08-06T04:57:43;17.13;;;5.72;;
13269;SDS011;6703;51.994;7.570;2023-08-06T05:00:11;12.23;;;5.57;;
13269;SDS011;6703;51.994;7.570;2023-08-06T05:02:41;12.63;;;5.40;;
13269;SDS011;6703;51.994;7.570;2023-08-06T05:05:09;15.68;;;5.28;;
13269;SDS011;6703;51.994;7.570;2023-08-06T05:07:38;13.35;;;5.00;;
13269;SDS011;6703;51.994;7.570;2023-08-06T05:10:10;10.70;;;5.03;;
13269;SDS011;6703;51.994;7.570;2023-08-06T05:12:38;10.13;;;5.60;;
13269;SDS011;6703;51.994;7.570;2023-08-06T05:15:07;11.30;;;5.30;;
13269;SDS011;6703;51.994;7.570;2023-08-06T05:17:35;14.25;;;5.22;;
13269;SDS011;6703;51.994;7.570;2023-08-06T05:20:05;15.98;;;5.72;;
13269;SDS011;6703;51.994;7.570;2023-08-06T05:22:34;11.63;;;5.20;;
13269;SDS011;6703;51.994;7.570;2023-08-06T05:25:06;15.68;;;4.97;;
13269;SDS011;6703;51.994;7.570;2023-08-06T05:27:37;14.15;;;5.32;;
13269;SDS011;6703;51.994;7.570;2023-08-06T05:30:13;14.00;;;5.15;;
13269;SDS011;6703;51.994;7.570;2023-08-06T05:32:41;12.15;;;4.97;;
13269;SDS011;6703;51.994;7.570;2023-08-06T05:35:10;12.75;;;4.93;;
13269;SDS011;6703;51.994;7.570;2023-08-06T05:37:38;9.95;;;4.45;;
13269;SDS011;6703;51.994;7.570;2023-08-06T05:40:09;9.27;;;4.43;;
13269;SDS011;6703;51.994;7.570;2023-08-06T05:42:37;19.42;;;4.75;;
13269;SDS011;6703;51.994;7.570;2023-08-06T05:45:06;8.88;;;4.65;;
13269;SDS011;6703;51.994;7.570;2023-08-06T05:47:39;13.37;;;4.60;;
13269;SDS011;6703;51.994;7.570;2023-08-06T05:50:16;15.25;;;4.75;;
13269;SDS011;6703;51.994;7.570;2023-08-06T05:52:46;18.45;;;4.60;;
13269;SDS011;6703;51.994;7.570;2023-08-06T05:55:13;11.15;;;5.13;;
13269;SDS011;6703;51.994;7.570;2023-08-06T05:57:42;10.63;;;4.97;;
13269;SDS011;6703;51.994;7.570;2023-08-06T06:00:11;10.88;;;4.93;;
13269;SDS011;6703;51.994;7.570;2023-08-06T06:02:39;8.07;;;4.60;;
13269;SDS011;6703;51.994;7.570;2023-08-06T06:05:09;10.18;;;4.25;;
13269;SDS011;6703;51.994;7.570;2023-08-06T06:07:38;11.03;;;4.00;;
13269;SDS011;6703;51.994;7.570;2023-08-06T06:10:07;13.90;;;4.47;;
13269;SDS011;6703;51.994;7.570;2023-08-06T06:12:35;8.57;;;4.20;;
13269;SDS011;6703;51.994;7.570;2023-08-06T06:15:06;12.15;;;3.53;;
13269;SDS011;6703;51.994;7.570;2023-08-06T06:20:09;8.15;;;3.40;;
13269;SDS011;6703;51.994;7.570;2023-08-06T06:22:41;9.68;;;3.22;;
13269;SDS011;6703;51.994;7.570;2023-08-06T06:25:09;9.80;;;3.28;;
13269;SDS011;6703;51.994;7.570;2023-08-06T06:27:37;10.67;;;3.80;;
13269;SDS011;6703;51.994;7.570;2023-08-06T06:30:05;6.07;;;3.33;;
13269;SDS011;6703;51.994;7.570;2023-08-06T06:32:34;7.07;;;3.60;;
13269;SDS011;6703;51.994;7.570;2023-08-06T06:35:02;5.43;;;3.72;;
13269;SDS011;6703;51.994;7.570;2023-08-06T06:37:31;7.13;;;3.22;;
13269;SDS011;6703;51.994;7.570;2023-08-06T06:40:00;6.35;;;3.42;;
13269;SDS011;6703;51.994;7.570;2023-08-06T06:42:28;7.13;;;3.30;;
13269;SDS011;6703;51.994;7.570;2023-08-06T06:44:56;7.88;;;3.50;;
13269;SDS011;6703;51.994;7.570;2023-08-06T06:47:24;9.85;;;3.90;;
13269;SDS011;6703;51.994;7.570;2023-08-06T06:49:53;9.95;;;3.38;;
13269;SDS011;6703;51.994;7.570;2023-08-06T06:52:21;9.73;;;3.30;;
13269;SDS011;6703;51.994;7.570;2023-08-06T06:54:49;6.90;;;2.97;;
13269;SDS011;6703;51.994;7.570;2023-08-06T06:57:20;6.10;;;3.22;;
13269;SDS011;6703;51.994;7.570;2023-08-06T06:59:48;6.65;;;3.13;;
13269;SDS011;6703;51.994;7.570;2023-08-06T07:02:17;8.13;;;3.13;;
13269;SDS011;6703;51.994;7.570;2023-08-06T07:04:45;7.65;;;2.97;;
13269;SDS011;6703;51.994;7.570;2023-08-06T07:07:13;4.45;;;2.58;;
13269;SDS011;6703;51.994;7.570;2023-08-06T07:09:41;11.77;;;3.20;;
13269;SDS011;6703;51.994;7.570;2023-08-06T07:12:11;4.88;;;3.20;;
13269;SDS011;6703;51.994;7.570;2023-08-06T07:14:41;5.88;;;2.83;;
13269;SDS011;6703;51.994;7.570;2023-08-06T07:17:09;4.22;;;2.60;;
13269;SDS011;6703;51.994;7.570;2023-08-06T07:19:36;6.40;;;2.38;;
13269;SDS011;6703;51.994;7.570;2023-08-06T07:22:05;5.55;;;2.53;;
13269;SDS011;6703;51.994;7.570;2023-08-06T07:24:34;7.07;;;2.28;;
13269;SDS011;6703;51.994;7.570;2023-08-06T07:27:02;5.72;;;2.47;;
13269;SDS011;6703;51.994;7.570;2023-08-06T07:29:30;6.80;;;2.45;;
13269;SDS011;6703;51.994;7.570;2023-08-06T07:31:59;7.30;;;2.50;;
13269;SDS011;6703;51.994;7.570;2023-08-06T07:34:28;5.40;;;2.50;;
13269;SDS011;6703;51.994;7.570;2023-08-06T07:36:56;4.95;;;2.40;;
13269;SDS011;6703;51.994;7.570;2023-08-06T07:39:27;6.03;;;2.78;;
13269;SDS011;6703;51.994;7.570;2023-08-06T07:41:56;5.45;;;2.72;;
13269;SDS011;6703;51.994;7.570;2023-08-06T07:44:26;7.70;;;2.80;;
13269;SDS011;6703;51.994;7.570;2023-08-06T07:46:57;4.82;;;2.30;;
13269;SDS011;6703;51.994;7.570;2023-08-06T07:50:02;5.72;;;2.88;;
13269;SDS011;6703;51.994;7.570;2023-08-06T07:52:46;6.60;;;2.70;;
13269;SDS011;6703;51.994;7.570;2023-08-06T07:55:31;9.77;;;2.90;;
13269;SDS011;6703;51.994;7.570;2023-08-06T07:57:59;6.90;;;2.90;;
13269;SDS011;6703;51.994;7.570;2023-08-06T08:00:27;7.32;;;2.22;;
13269;SDS011;6703;51.994;7.570;2023-08-06T08:02:57;3.88;;;2.25;;
13269;SDS011;6703;51.994;7.570;2023-08-06T08:05:25;6.07;;;2.17;;
13269;SDS011;6703;51.994;7.570;2023-08-06T08:07:52;3.83;;;2.30;;
13269;SDS011;6703;51.994;7.570;2023-08-06T08:10:21;6.50;;;2.37;;
13269;SDS011;6703;51.994;7.570;2023-08-06T08:12:49;3.85;;;1.80;;
13269;SDS011;6703;51.994;7.570;2023-08-06T08:15:17;4.85;;;2.22;;
13269;SDS011;6703;51.994;7.570;2023-08-06T08:17:45;3.65;;;1.90;;
13269;SDS011;6703;51.994;7.570;2023-08-06T08:20:16;3.60;;;1.70;;
13269;SDS011;6703;51.994;7.570;2023-08-06T08:22:44;3.30;;;1.67;;
13269;SDS011;6703;51.994;7.570;2023-08-06T08:25:15;6.30;;;1.60;;
13269;SDS011;6703;51.994;7.570;2023-08-06T08:27:43;5.90;;;1.67;;
13269;SDS011;6703;51.994;7.570;2023-08-06T08:30:11;6.90;;;1.85;;
13269;SDS011;6703;51.994;7.570;2023-08-06T08:32:39;4.35;;;1.60;;
13269;SDS011;6703;51.994;7.570;2023-08-06T08:35:07;5.45;;;1.63;;
13269;SDS011;6703;51.994;7.570;2023-08-06T08:37:37;2.63;;;1.55;;
13269;SDS011;6703;51.994;7.570;2023-08-06T08:40:05;4.03;;;1.73;;
13269;SDS011;6703;51.994;7.570;2023-08-06T08:42:34;4.03;;;1.52;;
13269;SDS011;6703;51.994;7.570;2023-08-06T08:45:02;3.10;;;1.77;;
13269;SDS011;6703;51.994;7.570;2023-08-06T08:47:32;9.30;;;1.60;;
13269;SDS011;6703;51.994;7.570;2023-08-06T08:50:00;2.92;;;1.67;;
13269;SDS011;6703;51.994;7.570;2023-08-06T08:52:28;2.95;;;1.50;;
13269;SDS011;6703;51.994;7.570;2023-08-06T08:55:01;2.42;;;1.50;;
13269;SDS011;6703;51.994;7.570;2023-08-06T08:57:29;3.72;;;1.90;;
13269;SDS011;6703;51.994;7.570;2023-08-06T08:59:56;6.88;;;1.83;;
13269;SDS011;6703;51.994;7.570;2023-08-06T09:02:25;4.63;;;1.65;;
13269;SDS011;6703;51.994;7.570;2023-08-06T09:05:09;3.90;;;1.80;;
13269;SDS011;6703;51.994;7.570;2023-08-06T09:07:48;2.97;;;1.80;;
13269;SDS011;6703;51.994;7.570;2023-08-06T09:10:17;2.97;;;1.70;;
13269;SDS011;6703;51.994;7.570;2023-08-06T09:12:49;4.50;;;1.83;;
13269;SDS011;6703;51.994;7.570;2023-08-06T09:15:20;4.38;;;1.70;;
13269;SDS011;6703;51.994;7.570;2023-08-06T09:17:51;2.85;;;1.70;;
13269;SDS011;6703;51.994;7.570;2023-08-06T09:20:19;3.95;;;1.30;;
13269;SDS011;6703;51.994;7.570;2023-08-06T09:23:06;4.28;;;1.70;;
13269;SDS011;6703;51.994;7.570;2023-08-06T09:25:37;2.70;;;1.48;;
13269;SDS011;6703;51.994;7.570;2023-08-06T09:28:06;3.65;;;1.60;;
13269;SDS011;6703;51.994;7.570;2023-08-06T09:30:35;2.35;;;1.40;;
13269;SDS011;6703;51.994;7.570;2023-08-06T09:33:04;3.95;;;1.50;;
13269;SDS011;6703;51.994;7.570;2023-08-06T09:35:36;4.32;;;1.70;;
13269;SDS011;6703;51.994;7.570;2023-08-06T09:38:07;3.22;;;1.45;;
13269;SDS011;6703;51.994;7.570;2023-08-06T09:40:38;5.50;;;1.75;;
13269;SDS011;6703;51.994;7.570;2023-08-06T09:43:06;4.05;;;1.38;;
13269;SDS011;6703;51.994;7.570;2023-08-06T09:45:35;3.20;;;1.70;;
13269;SDS011;6703;51.994;7.570;2023-08-06T09:48:04;3.47;;;1.30;;
13269;SDS011;6703;51.994;7.570;2023-08-06T09:50:33;7.97;;;1.52;;
13269;SDS011;6703;51.994;7.570;2023-08-06T09:53:02;4.95;;;1.42;;
13269;SDS011;6703;51.994;7.570;2023-08-06T09:55:31;2.70;;;1.50;;
13269;SDS011;6703;51.994;7.570;2023-08-06T09:58:01;1.95;;;1.20;;
13269;SDS011;6703;51.994;7.570;2023-08-06T10:00:29;3.50;;;1.50;;
13269;SDS011;6703;51.994;7.570;2023-08-06T10:03:03;3.08;;;1.58;;
13269;SDS011;6703;51.994;7.570;2023-08-06T10:05:32;2.77;;;1.43;;
13269;SDS011;6703;51.994;7.570;2023-08-06T10:08:00;4.13;;;1.67;;
13269;SDS011;6703;51.994;7.570;2023-08-06T10:10:30;4.88;;;1.50;;
13269;SDS011;6703;51.994;7.570;2023-08-06T10:12:58;4.83;;;1.50;;
13269;SDS011;6703;51.994;7.570;2023-08-06T10:15:28;5.60;;;1.42;;
13269;SDS011;6703;51.994;7.570;2023-08-06T10:17:59;4.70;;;1.30;;
13269;SDS011;6703;51.994;7.570;2023-08-06T10:20:27;3.72;;;1.38;;
13269;SDS011;6703;51.994;7.570;2023-08-06T10:23:00;3.35;;;1.17;;
13269;SDS011;6703;51.994;7.570;2023-08-06T10:25:32;7.15;;;1.58;;
13269;SDS011;6703;51.994;7.570;2023-08-06T10:28:07;4.50;;;1.30;;
13269;SDS011;6703;51.994;7.570;2023-08-06T10:30:42;5.63;;;1.58;;
13269;SDS011;6703;51.994;7.570;2023-08-06T10:33:10;5.53;;;1.50;;
13269;SDS011;6703;51.994;7.570;2023-08-06T10:35:40;3.83;;;1.45;;
13269;SDS011;6703;51.994;7.570;2023-08-06T10:38:10;2.05;;;1.30;;
13269;SDS011;6703;51.994;7.570;2023-08-06T10:40:40;2.80;;;1.50;;
13269;SDS011;6703;51.994;7.570;2023-08-06T10:43:08;1.88;;;1.30;;
13269;SDS011;6703;51.994;7.570;2023-08-06T10:45:54;3.60;;;1.37;;
13269;SDS011;6703;51.994;7.570;2023-08-06T10:48:31;3.45;;;1.38;;
13269;SDS011;6703;51.994;7.570;2023-08-06T10:51:02;2.70;;;1.40;;
13269;SDS011;6703;51.994;7.570;2023-08-06T10:53:31;2.53;;;1.50;;
13269;SDS011;6703;51.994;7.570;2023-08-06T10:56:00;2.80;;;1.60;;
13269;SDS011;6703;51.994;7.570;2023-08-06T10:58:30;4.43;;;1.65;;
13269;SDS011;6703;51.994;7.570;2023-08-06T11:01:00;4.13;;;1.55;;
13269;SDS011;6703;51.994;7.570;2023-08-06T11:03:29;3.40;;;1.63;;
13269;SDS011;6703;51.994;7.570;2023-08-06T11:05:56;4.10;;;1.58;;
13269;SDS011;6703;51.994;7.570;2023-08-06T11:08:24;3.95;;;1.60;;
13269;SDS011;6703;51.994;7.570;2023-08-06T11:10:52;3.13;;;1.60;;
13269;SDS011;6703;51.994;7.570;2023-08-06T11:13:29;2.83;;;1.58;;
13269;SDS011;6703;51.994;7.570;2023-08-06T11:16:01;3.97;;;1.60;;
13269;SDS011;6703;51.994;7.570;2023-08-06T11:18:29;3.95;;;1.75;;
13269;SDS011;6703;51.994;7.570;2023-08-06T11:20:58;2.97;;;1.55;;
13269;SDS011;6703;51.994;7.570;2023-08-06T11:23:28;5.20;;;1.80;;
13269;SDS011;6703;51.994;7.570;2023-08-06T11:25:57;4.13;;;1.77;;
13269;SDS011;6703;51.994;7.570;2023-08-06T11:28:25;2.42;;;1.90;;
13269;SDS011;6703;51.994;7.570;2023-08-06T11:30:53;3.80;;;1.80;;
13269;SDS011;6703;51.994;7.570;2023-08-06T11:33:23;3.85;;;2.00;;
13269;SDS011;6703;51.994;7.570;2023-08-06T11:35:51;5.50;;;1.80;;
13269;SDS011;6703;51.994;7.570;2023-08-06T11:38:19;5.53;;;1.80;;
13269;SDS011;6703;51.994;7.570;2023-08-06T11:40:47;1.50;;;1.10;;
13269;SDS011;6703;51.994;7.570;2023-08-06T11:43:15;2.80;;;1.80;;
13269;SDS011;6703;51.994;7.570;2023-08-06T11:45:45;4.97;;;1.67;;
13269;SDS011;6703;51.994;7.570;2023-08-06T11:48:13;2.15;;;1.52;;
13269;SDS011;6703;51.994;7.570;2023-08-06T11:50:42;3.83;;;1.67;;
13269;SDS011;6703;51.994;7.570;2023-08-06T11:53:11;3.40;;;1.60;;
13269;SDS011;6703;51.994;7.570;2023-08-06T11:55:40;3.22;;;1.50;;
13269;SDS011;6703;51.994;7.570;2023-08-06T11:58:09;3.22;;;1.38;;
13269;SDS011;6703;51.994;7.570;2023-08-06T12:00:38;1.45;;;1.05;;
13269;SDS011;6703;51.994;7.570;2023-08-06T12:03:06;2.63;;;1.10;;
13269;SDS011;6703;51.994;7.570;2023-08-06T12:05:34;3.25;;;1.23;;
13269;SDS011;6703;51.994;7.570;2023-08-06T12:08:03;2.40;;;1.30;;
13269;SDS011;6703;51.994;7.570;2023-08-06T12:10:32;4.03;;;1.45;;
13269;SDS011;6703;51.994;7.570;2023-08-06T12:13:00;1.73;;;1.15;;
13269;SDS011;6703;51.994;7.570;2023-08-06T12:15:29;7.60;;;1.10;;
13269;SDS011;6703;51.994;7.570;2023-08-06T12:17:59;1.73;;;1.08;;
13269;SDS011;6703;51.994;7.570;2023-08-06T12:20:27;1.40;;;1.00;;
13269;SDS011;6703;51.994;7.570;2023-08-06T12:22:55;1.80;;;1.00;;
13269;SDS011;6703;51.994;7.570;2023-08-06T12:25:24;3.73;;;1.50;;
13269;SDS011;6703;51.994;7.570;2023-08-06T12:27:52;2.65;;;1.55;;
13269;SDS011;6703;51.994;7.570;2023-08-06T12:30:19;3.55;;;1.80;;
13269;SDS011;6703;51.994;7.570;2023-08-06T12:32:47;4.47;;;1.90;;
13269;SDS011;6703;51.994;7.570;2023-08-06T12:35:17;4.40;;;1.80;;
13269;SDS011;6703;51.994;7.570;2023-08-06T12:37:46;2.93;;;1.80;;
13269;SDS011;6703;51.994;7.570;2023-08-06T12:40:14;4.72;;;1.88;;
13269;SDS011;6703;51.994;7.570;2023-08-06T12:43:02;4.68;;;1.55;;
13269;SDS011;6703;51.994;7.570;2023-08-06T12:45:30;4.30;;;1.40;;
13269;SDS011;6703;51.994;7.570;2023-08-06T12:47:58;4.47;;;1.60;;
13269;SDS011;6703;51.994;7.570;2023-08-06T12:50:26;3.17;;;1.70;;
13269;SDS011;6703;51.994;7.570;2023-08-06T12:52:54;3.47;;;1.45;;
13269;SDS011;6703;51.994;7.570;2023-08-06T12:55:22;3.42;;;1.60;;
13269;SDS011;6703;51.994;7.570;2023-08-06T12:57:49;3.80;;;1.80;;
13269;SDS011;6703;51.994;7.570;2023-08-06T13:00:26;2.75;;;1.42;;
13269;SDS011;6703;51.994;7.570;2023-08-06T13:02:54;2.30;;;1.40;;
13269;SDS011;6703;51.994;7.570;2023-08-06T13:05:21;3.30;;;1.48;;
13269;SDS011;6703;51.994;7.570;2023-08-06T13:07:49;4.75;;;2.75;;
13269;SDS011;6703;51.994;7.570;2023-08-06T13:10:17;2.60;;;1.60;;
13269;SDS011;6703;51.994;7.570;2023-08-06T13:12:46;5.43;;;1.65;;
13269;SDS011;6703;51.994;7.570;2023-08-06T13:15:14;2.08;;;1.35;;
13269;SDS011;6703;51.994;7.570;2023-08-06T13:17:45;3.00;;;1.60;;
13269;SDS011;6703;51.994;7.570;2023-08-06T13:20:14;5.13;;;1.70;;
13269;SDS011;6703;51.994;7.570;2023-08-06T13:22:46;1.85;;;1.38;;
13269;SDS011;6703;51.994;7.570;2023-08-06T13:25:17;4.70;;;1.80;;
13269;SDS011;6703;51.994;7.570;2023-08-06T13:27:45;2.45;;;1.45;;
13269;SDS011;6703;51.994;7.570;2023-08-06T13:30:14;5.00;;;1.43;;
13269;SDS011;6703;51.994;7.570;2023-08-06T13:32:42;2.90;;;1.70;;
13269;SDS011;6703;51.994;7.570;2023-08-06T13:35:12;4.85;;;1.70;;
13269;SDS011;6703;51.994;7.570;2023-08-06T13:37:39;4.75;;;2.50;;
13269;SDS011;6703;51.994;7.570;2023-08-06T13:40:07;4.22;;;1.70;;
13269;SDS011;6703;51.994;7.570;2023-08-06T13:42:36;3.87;;;1.80;;
13269;SDS011;6703;51.994;7.570;2023-08-06T13:45:04;3.33;;;1.83;;
13269;SDS011;6703;51.994;7.570;2023-08-06T13:47:32;4.28;;;1.95;;
13269;SDS011;6703;51.994;7.570;2023-08-06T13:50:01;7.25;;;3.13;;
13269;SDS011;6703;51.994;7.570;2023-08-06T13:52:30;2.72;;;1.70;;
13269;SDS011;6703;51.994;7.570;2023-08-06T13:54:58;2.37;;;1.63;;
13269;SDS011;6703;51.994;7.570;2023-08-06T13:57:25;5.00;;;1.75;;
13269;SDS011;6703;51.994;7.570;2023-08-06T13:59:53;5.33;;;2.90;;
13269;SDS011;6703;51.994;7.570;2023-08-06T14:02:21;3.88;;;1.67;;
13269;SDS011;6703;51.994;7.570;2023-08-06T14:04:50;10.90;;;1.88;;
13269;SDS011;6703;51.994;7.570;2023-08-06T14:07:19;5.18;;;2.67;;
13269;SDS011;6703;51.994;7.570;2023-08-06T14:09:47;4.78;;;2.80;;
13269;SDS011;6703;51.994;7.570;2023-08-06T14:12:15;8.37;;;3.10;;
13269;SDS011;6703;51.994;7.570;2023-08-06T14:14:43;7.07;;;3.47;;
13269;SDS011;6703;51.994;7.570;2023-08-06T14:17:11;7.43;;;3.25;;
13269;SDS011;6703;51.994;7.570;2023-08-06T14:22:25;2.75;;;1.30;;
13269;SDS011;6703;51.994;7.570;2023-08-06T14:24:53;4.07;;;1.50;;
13269;SDS011;6703;51.994;7.570;2023-08-06T14:27:22;0.00;;;0.00;;
13269;SDS011;6703;51.994;7.570;2023-08-06T14:29:50;0.00;;;0.00;;
13269;SDS011;6703;51.994;7.570;2023-08-06T14:32:18;0.10;;;0.10;;
13269;SDS011;6703;51.994;7.570;2023-08-06T14:34:45;0.00;;;0.00;;
13269;SDS011;6703;51.994;7.570;2023-08-06T14:37:13;0.00;;;0.00;;
13269;SDS011;6703;51.994;7.570;2023-08-06T14:39:42;0.00;;;0.00;;
13269;SDS011;6703;51.994;7.570;2023-08-06T14:42:10;0.00;;;0.00;;
13269;SDS011;6703;51.994;7.570;2023-08-06T14:44:38;0.00;;;0.00;;
13269;SDS011;6703;51.994;7.570;2023-08-06T14:47:07;0.10;;;0.10;;
13269;SDS011;6703;51.994;7.570;2023-08-06T14:49:34;0.63;;;0.45;;
13269;SDS011;6703;51.994;7.570;2023-08-06T14:52:03;0.00;;;0.00;;
13269;SDS011;6703;51.994;7.570;2023-08-06T14:54:32;3.10;;;0.30;;
13269;SDS011;6703;51.994;7.570;2023-08-06T14:57:01;0.00;;;0.00;;
13269;SDS011;6703;51.994;7.570;2023-08-06T14:59:29;0.00;;;0.00;;
13269;SDS011;6703;51.994;7.570;2023-08-06T15:01:57;0.30;;;0.30;;
13269;SDS011;6703;51.994;7.570;2023-08-06T15:04:24;0.00;;;0.00;;
13269;SDS011;6703;51.994;7.570;2023-08-06T15:06:52;0.00;;;0.00;;
13269;SDS011;6703;51.994;7.570;2023-08-06T15:09:21;0.00;;;0.00;;
13269;SDS011;6703;51.994;7.570;2023-08-06T15:11:49;0.00;;;0.00;;
13269;SDS011;6703;51.994;7.570;2023-08-06T15:14:18;1.40;;;0.30;;
13269;SDS011;6703;51.994;7.570;2023-08-06T15:16:46;0.40;;;0.40;;